sensor_id;sensor_type;location;lat;lon;timestamp;pressure;altitude;pressure_sealevel;temperature;humidity
81704;BME280;71117;52.352;4.808;2024-01-30T00:01:54;102610.16;;;8.40;93.59
81704;BME280;71117;52.352;4.808;2024-01-30T00:04:20;102616.50;;;8.44;93.72
81704;BME280;71117;52.352;4.808;2024-01-30T00:06:45;102618.38;;;8.46;93.04
81704;BME280;71117;52.352;4.808;2024-01-30T00:09:11;102611.38;;;8.47;93.45
81704;BME280;71117;52.352;4.808;2024-01-30T00:11:37;102607.97;;;8.48;92.87
81704;BME280;71117;52.352;4.808;2024-01-30T00:14:03;102610.91;;;8.54;92.96
81704;BME280;71117;52.352;4.808;2024-01-30T00:16:28;102614.00;;;8.47;93.33
81704;BME280;71117;52.352;4.808;2024-01-30T00:18:54;102614.59;;;8.41;93.32
81704;BME280;71117;52.352;4.808;2024-01-30T00:21:20;102611.38;;;8.47;93.22
81704;BME280;71117;52.352;4.808;2024-01-30T00:23:46;102607.28;;;8.52;92.93
81704;BME280;71117;52.352;4.808;2024-01-30T00:26:11;102602.91;;;8.53;93.06
81704;BME280;71117;52.352;4.808;2024-01-30T00:28:38;102595.38;;;8.59;92.63
81704;BME280;71117;52.352;4.808;2024-01-30T00:31:03;102601.94;;;8.67;92.77
81704;BME280;71117;52.352;4.808;2024-01-30T00:33:29;102616.59;;;8.62;92.54
81704;BME280;71117;52.352;4.808;2024-01-30T00:35:54;102604.50;;;8.65;91.88
81704;BME280;71117;52.352;4.808;2024-01-30T00:38:20;102601.94;;;8.67;91.70
81704;BME280;71117;52.352;4.808;2024-01-30T00:40:45;102601.38;;;8.72;91.91
81704;BME280;71117;52.352;4.808;2024-01-30T00:43:11;102592.69;;;8.75;91.77
81704;BME280;71117;52.352;4.808;2024-01-30T00:45:36;102583.31;;;8.80;91.47
81704;BME280;71117;52.352;4.808;2024-01-30T00:48:01;102593.13;;;8.83;91.70
81704;BME280;71117;52.352;4.808;2024-01-30T00:50:27;102594.75;;;8.81;91.60
81704;BME280;71117;52.352;4.808;2024-01-30T00:52:52;102587.69;;;8.80;91.00
81704;BME280;71117;52.352;4.808;2024-01-30T00:55:17;102593.53;;;8.90;90.85
81704;BME280;71117;52.352;4.808;2024-01-30T00:57:43;102596.00;;;8.87;91.21
81704;BME280;71117;52.352;4.808;2024-01-30T01:00:08;102594.28;;;8.88;90.91
81704;BME280;71117;52.352;4.808;2024-01-30T01:02:37;102605.78;;;8.90;90.48
81704;BME280;71117;52.352;4.808;2024-01-30T01:05:04;102597.88;;;8.90;90.67
81704;BME280;71117;52.352;4.808;2024-01-30T01:07:29;102595.91;;;8.86;90.91
81704;BME280;71117;52.352;4.808;2024-01-30T01:09:55;102594.94;;;8.84;90.94
81704;BME280;71117;52.352;4.808;2024-01-30T01:12:20;102599.22;;;8.82;90.74
81704;BME280;71117;52.352;4.808;2024-01-30T01:14:46;102603.66;;;8.83;91.08
81704;BME280;71117;52.352;4.808;2024-01-30T01:17:11;102614.53;;;8.89;90.76
81704;BME280;71117;52.352;4.808;2024-01-30T01:19:37;102609.75;;;8.82;91.21
81704;BME280;71117;52.352;4.808;2024-01-30T01:22:03;102603.09;;;8.88;90.83
81704;BME280;71117;52.352;4.808;2024-01-30T01:24:31;102594.03;;;8.83;91.04
81704;BME280;71117;52.352;4.808;2024-01-30T01:27:00;102596.16;;;8.90;90.12
81704;BME280;71117;52.352;4.808;2024-01-30T01:29:25;102592.03;;;8.95;90.31
81704;BME280;71117;52.352;4.808;2024-01-30T01:31:57;102586.03;;;8.98;89.91
81704;BME280;71117;52.352;4.808;2024-01-30T01:34:22;102592.03;;;8.95;89.87
81704;BME280;71117;52.352;4.808;2024-01-30T01:36:49;102576.75;;;8.88;90.43
81704;BME280;71117;52.352;4.808;2024-01-30T01:39:14;102575.16;;;8.92;90.20
81704;BME280;71117;52.352;4.808;2024-01-30T01:41:40;102592.09;;;8.97;90.12
81704;BME280;71117;52.352;4.808;2024-01-30T01:44:06;102585.94;;;8.96;89.96
81704;BME280;71117;52.352;4.808;2024-01-30T01:46:33;102577.44;;;9.02;89.64
81704;BME280;71117;52.352;4.808;2024-01-30T01:49:00;102569.41;;;8.99;90.00
81704;BME280;71117;52.352;4.808;2024-01-30T01:51:27;102568.38;;;9.13;89.08
81704;BME280;71117;52.352;4.808;2024-01-30T01:53:53;102553.16;;;9.08;89.04
81704;BME280;71117;52.352;4.808;2024-01-30T01:56:19;102544.56;;;9.12;88.87
81704;BME280;71117;52.352;4.808;2024-01-30T01:58:46;102567.88;;;9.20;88.79
81704;BME280;71117;52.352;4.808;2024-01-30T02:01:12;102550.69;;;9.11;88.98
81704;BME280;71117;52.352;4.808;2024-01-30T02:03:38;102555.50;;;9.19;88.89
81704;BME280;71117;52.352;4.808;2024-01-30T02:06:04;102547.81;;;9.24;88.41
81704;BME280;71117;52.352;4.808;2024-01-30T02:08:30;102535.41;;;9.21;88.24
81704;BME280;71117;52.352;4.808;2024-01-30T02:10:55;102578.41;;;9.20;88.75
81704;BME280;71117;52.352;4.808;2024-01-30T02:13:21;102569.13;;;9.11;88.73
81704;BME280;71117;52.352;4.808;2024-01-30T02:15:50;102557.69;;;9.10;88.83
81704;BME280;71117;52.352;4.808;2024-01-30T02:18:16;102546.25;;;9.10;89.08
81704;BME280;71117;52.352;4.808;2024-01-30T02:20:41;102556.84;;;9.11;88.63
81704;BME280;71117;52.352;4.808;2024-01-30T02:23:10;102550.25;;;9.03;89.15
81704;BME280;71117;52.352;4.808;2024-01-30T02:25:39;102538.34;;;9.10;89.07
81704;BME280;71117;52.352;4.808;2024-01-30T02:28:13;102567.00;;;9.04;88.86
81704;BME280;71117;52.352;4.808;2024-01-30T02:30:44;102573.00;;;9.01;88.84
81704;BME280;71117;52.352;4.808;2024-01-30T02:33:10;102569.84;;;9.08;88.57
81704;BME280;71117;52.352;4.808;2024-01-30T02:35:35;102561.06;;;9.08;88.92
81704;BME280;71117;52.352;4.808;2024-01-30T02:38:00;102555.88;;;9.09;88.43
81704;BME280;71117;52.352;4.808;2024-01-30T02:40:26;102550.44;;;9.06;88.69
81704;BME280;71117;52.352;4.808;2024-01-30T02:42:51;102548.88;;;9.10;88.38
81704;BME280;71117;52.352;4.808;2024-01-30T02:45:17;102547.97;;;9.09;88.23
81704;BME280;71117;52.352;4.808;2024-01-30T02:47:42;102551.66;;;9.13;88.17
81704;BME280;71117;52.352;4.808;2024-01-30T02:50:09;102537.63;;;9.14;88.07
81704;BME280;71117;52.352;4.808;2024-01-30T02:52:34;102538.78;;;9.19;87.84
81704;BME280;71117;52.352;4.808;2024-01-30T02:55:00;102539.53;;;9.16;87.81
81704;BME280;71117;52.352;4.808;2024-01-30T02:57:25;102535.31;;;9.20;87.38
81704;BME280;71117;52.352;4.808;2024-01-30T02:59:51;102535.69;;;9.10;88.08
81704;BME280;71117;52.352;4.808;2024-01-30T03:02:16;102533.19;;;9.13;87.79
81704;BME280;71117;52.352;4.808;2024-01-30T03:04:41;102524.56;;;9.15;87.54
81704;BME280;71117;52.352;4.808;2024-01-30T03:09:42;102518.59;;;9.01;88.24
81704;BME280;71117;52.352;4.808;2024-01-30T03:12:09;102515.50;;;8.92;88.87
81704;BME280;71117;52.352;4.808;2024-01-30T03:14:34;102504.78;;;8.89;88.66
81704;BME280;71117;52.352;4.808;2024-01-30T03:16:59;102513.97;;;8.97;88.53
81704;BME280;71117;52.352;4.808;2024-01-30T03:19:24;102504.13;;;8.93;88.69
81704;BME280;71117;52.352;4.808;2024-01-30T03:21:50;102500.91;;;8.99;88.50
81704;BME280;71117;52.352;4.808;2024-01-30T03:24:16;102508.28;;;9.06;88.12
81704;BME280;71117;52.352;4.808;2024-01-30T03:26:42;102508.03;;;9.01;88.51
81704;BME280;71117;52.352;4.808;2024-01-30T03:29:07;102496.28;;;8.95;88.16
81704;BME280;71117;52.352;4.808;2024-01-30T03:31:32;102500.81;;;8.97;88.47
81704;BME280;71117;52.352;4.808;2024-01-30T03:33:58;102499.16;;;8.99;87.99
81704;BME280;71117;52.352;4.808;2024-01-30T03:36:23;102505.28;;;8.98;88.19
81704;BME280;71117;52.352;4.808;2024-01-30T03:38:48;102509.28;;;8.92;88.72
81704;BME280;71117;52.352;4.808;2024-01-30T03:41:15;102512.88;;;8.92;88.58
81704;BME280;71117;52.352;4.808;2024-01-30T03:43:40;102510.59;;;9.00;88.51
81704;BME280;71117;52.352;4.808;2024-01-30T03:46:06;102507.22;;;9.02;88.02
81704;BME280;71117;52.352;4.808;2024-01-30T03:48:31;102505.41;;;9.01;87.51
81704;BME280;71117;52.352;4.808;2024-01-30T03:50:56;102506.16;;;8.99;88.13
81704;BME280;71117;52.352;4.808;2024-01-30T03:53:22;102504.56;;;9.02;88.17
81704;BME280;71117;52.352;4.808;2024-01-30T03:55:47;102500.06;;;9.00;88.03
81704;BME280;71117;52.352;4.808;2024-01-30T03:58:13;102502.34;;;9.10;87.76
81704;BME280;71117;52.352;4.808;2024-01-30T04:00:38;102494.44;;;9.10;87.75
81704;BME280;71117;52.352;4.808;2024-01-30T04:03:04;102489.78;;;9.05;88.00
81704;BME280;71117;52.352;4.808;2024-01-30T04:05:29;102489.16;;;9.10;88.09
81704;BME280;71117;52.352;4.808;2024-01-30T04:07:55;102480.44;;;9.11;88.11
81704;BME280;71117;52.352;4.808;2024-01-30T04:10:20;102478.47;;;9.07;88.02
81704;BME280;71117;52.352;4.808;2024-01-30T04:12:45;102485.34;;;9.04;88.09
81704;BME280;71117;52.352;4.808;2024-01-30T04:15:11;102490.06;;;9.11;88.21
81704;BME280;71117;52.352;4.808;2024-01-30T04:17:36;102495.16;;;9.08;88.05
81704;BME280;71117;52.352;4.808;2024-01-30T04:20:01;102489.00;;;9.07;88.31
81704;BME280;71117;52.352;4.808;2024-01-30T04:22:27;102496.84;;;9.06;88.29
81704;BME280;71117;52.352;4.808;2024-01-30T04:24:52;102496.97;;;9.09;88.51
81704;BME280;71117;52.352;4.808;2024-01-30T04:27:18;102495.28;;;9.09;88.38
81704;BME280;71117;52.352;4.808;2024-01-30T04:29:43;102495.94;;;9.05;88.41
81704;BME280;71117;52.352;4.808;2024-01-30T04:32:09;102496.38;;;9.14;88.21
81704;BME280;71117;52.352;4.808;2024-01-30T04:34:36;102489.84;;;9.06;87.87
81704;BME280;71117;52.352;4.808;2024-01-30T04:37:01;102485.34;;;9.04;88.79
81704;BME280;71117;52.352;4.808;2024-01-30T04:39:27;102483.66;;;9.06;88.56
81704;BME280;71117;52.352;4.808;2024-01-30T04:41:52;102480.44;;;9.11;88.49
81704;BME280;71117;52.352;4.808;2024-01-30T04:44:17;102483.13;;;9.13;88.35
81704;BME280;71117;52.352;4.808;2024-01-30T04:46:42;102469.28;;;9.17;87.95
81704;BME280;71117;52.352;4.808;2024-01-30T04:49:08;102466.88;;;9.21;88.33
81704;BME280;71117;52.352;4.808;2024-01-30T04:51:33;102472.28;;;9.24;88.24
81704;BME280;71117;52.352;4.808;2024-01-30T04:53:59;102466.00;;;9.21;88.58
81704;BME280;71117;52.352;4.808;2024-01-30T04:56:24;102460.72;;;9.21;88.11
81704;BME280;71117;52.352;4.808;2024-01-30T04:58:49;102448.44;;;9.21;88.27
81704;BME280;71117;52.352;4.808;2024-01-30T05:01:16;102450.25;;;9.22;88.24
81704;BME280;71117;52.352;4.808;2024-01-30T05:03:41;102455.50;;;9.22;88.00
81704;BME280;71117;52.352;4.808;2024-01-30T05:06:06;102452.28;;;9.28;88.16
81704;BME280;71117;52.352;4.808;2024-01-30T05:08:32;102453.00;;;9.25;88.40
81704;BME280;71117;52.352;4.808;2024-01-30T05:11:00;102450.53;;;9.28;87.98
81704;BME280;71117;52.352;4.808;2024-01-30T05:13:25;102463.03;;;9.33;87.93
81704;BME280;71117;52.352;4.808;2024-01-30T05:15:50;102460.53;;;9.36;88.36
81704;BME280;71117;52.352;4.808;2024-01-30T05:18:16;102460.09;;;9.44;87.62
81704;BME280;71117;52.352;4.808;2024-01-30T05:20:41;102460.03;;;9.43;87.29
81704;BME280;71117;52.352;4.808;2024-01-30T05:23:07;102464.81;;;9.51;87.64
81704;BME280;71117;52.352;4.808;2024-01-30T05:25:32;102459.69;;;9.37;87.78
81704;BME280;71117;52.352;4.808;2024-01-30T05:27:57;102455.66;;;9.43;87.84
81704;BME280;71117;52.352;4.808;2024-01-30T05:30:23;102465.22;;;9.41;87.58
81704;BME280;71117;52.352;4.808;2024-01-30T05:32:48;102464.16;;;9.38;87.88
81704;BME280;71117;52.352;4.808;2024-01-30T05:35:14;102466.03;;;9.40;87.75
81704;BME280;71117;52.352;4.808;2024-01-30T05:37:40;102471.03;;;9.34;87.76
81704;BME280;71117;52.352;4.808;2024-01-30T05:40:06;102465.31;;;9.43;87.75
81704;BME280;71117;52.352;4.808;2024-01-30T05:42:31;102459.88;;;9.40;87.93
81704;BME280;71117;52.352;4.808;2024-01-30T05:44:56;102471.09;;;9.36;87.74
81704;BME280;71117;52.352;4.808;2024-01-30T05:47:23;102467.47;;;9.34;88.46
81704;BME280;71117;52.352;4.808;2024-01-30T05:49:49;102458.00;;;9.37;87.98
81704;BME280;71117;52.352;4.808;2024-01-30T05:52:14;102464.78;;;9.32;88.24
81704;BME280;71117;52.352;4.808;2024-01-30T05:54:40;102471.97;;;9.36;88.02
81704;BME280;71117;52.352;4.808;2024-01-30T05:57:06;102464.91;;;9.35;88.40
81704;BME280;71117;52.352;4.808;2024-01-30T05:59:31;102468.38;;;9.34;88.34
81704;BME280;71117;52.352;4.808;2024-01-30T06:01:57;102459.56;;;9.34;88.43
81704;BME280;71117;52.352;4.808;2024-01-30T06:04:23;102456.94;;;9.34;88.20
81704;BME280;71117;52.352;4.808;2024-01-30T06:06:48;102450.91;;;9.36;88.55
81704;BME280;71117;52.352;4.808;2024-01-30T06:09:14;102452.56;;;9.34;88.41
81704;BME280;71117;52.352;4.808;2024-01-30T06:11:39;102447.28;;;9.34;88.14
81704;BME280;71117;52.352;4.808;2024-01-30T06:14:05;102465.28;;;9.25;88.32
81704;BME280;71117;52.352;4.808;2024-01-30T06:16:30;102454.97;;;9.30;88.01
81704;BME280;71117;52.352;4.808;2024-01-30T06:18:56;102468.69;;;9.22;88.68
81704;BME280;71117;52.352;4.808;2024-01-30T06:21:21;102474.56;;;9.17;89.01
81704;BME280;71117;52.352;4.808;2024-01-30T06:23:47;102471.38;;;9.24;89.02
81704;BME280;71117;52.352;4.808;2024-01-30T06:26:15;102472.28;;;9.24;88.62
81704;BME280;71117;52.352;4.808;2024-01-30T06:28:40;102471.16;;;9.19;89.12
81704;BME280;71117;52.352;4.808;2024-01-30T06:31:05;102469.66;;;9.24;89.09
81704;BME280;71117;52.352;4.808;2024-01-30T06:33:31;102460.91;;;9.25;89.08
81704;BME280;71117;52.352;4.808;2024-01-30T06:35:56;102460.19;;;9.28;88.74
81704;BME280;71117;52.352;4.808;2024-01-30T06:38:21;102455.66;;;9.25;88.95
81704;BME280;71117;52.352;4.808;2024-01-30T06:40:47;102458.28;;;9.25;89.08
81704;BME280;71117;52.352;4.808;2024-01-30T06:43:12;102481.09;;;9.25;89.30
81704;BME280;71117;52.352;4.808;2024-01-30T06:45:37;102466.19;;;9.25;89.46
81704;BME280;71117;52.352;4.808;2024-01-30T06:48:03;102458.28;;;9.25;89.40
81704;BME280;71117;52.352;4.808;2024-01-30T06:50:28;102458.50;;;9.30;89.26
81704;BME280;71117;52.352;4.808;2024-01-30T06:52:53;102455.66;;;9.25;89.24
81704;BME280;71117;52.352;4.808;2024-01-30T06:55:19;102464.25;;;9.21;89.81
81704;BME280;71117;52.352;4.808;2024-01-30T06:57:44;102471.69;;;9.30;89.61
81704;BME280;71117;52.352;4.808;2024-01-30T07:00:10;102473.50;;;9.31;89.39
81704;BME280;71117;52.352;4.808;2024-01-30T07:02:35;102464.91;;;9.35;89.92
81704;BME280;71117;52.352;4.808;2024-01-30T07:05:01;102472.22;;;9.41;89.40
81704;BME280;71117;52.352;4.808;2024-01-30T07:07:27;102477.34;;;9.38;89.10
81704;BME280;71117;52.352;4.808;2024-01-30T07:09:53;102473.22;;;9.43;89.21
81704;BME280;71117;52.352;4.808;2024-01-30T07:12:24;102478.47;;;9.43;89.26
81704;BME280;71117;52.352;4.808;2024-01-30T07:14:51;102485.09;;;9.52;89.34
81704;BME280;71117;52.352;4.808;2024-01-30T07:17:17;102495.19;;;9.61;88.62
81704;BME280;71117;52.352;4.808;2024-01-30T07:19:42;102500.13;;;9.73;88.59
81704;BME280;71117;52.352;4.808;2024-01-30T07:22:08;102491.97;;;9.86;88.35
81704;BME280;71117;52.352;4.808;2024-01-30T07:24:33;102494.63;;;9.68;88.40
81704;BME280;71117;52.352;4.808;2024-01-30T07:27:00;102489.59;;;9.73;88.30
81704;BME280;71117;52.352;4.808;2024-01-30T07:29:25;102496.66;;;9.74;88.09
81704;BME280;71117;52.352;4.808;2024-01-30T07:31:51;102496.59;;;9.72;88.86
81704;BME280;71117;52.352;4.808;2024-01-30T07:34:16;102491.31;;;9.72;88.54
81704;BME280;71117;52.352;4.808;2024-01-30T07:36:41;102506.47;;;9.76;88.08
81704;BME280;71117;52.352;4.808;2024-01-30T07:39:07;102494.09;;;9.75;88.22
81704;BME280;71117;52.352;4.808;2024-01-30T07:41:32;102501.63;;;9.86;87.96
81704;BME280;71117;52.352;4.808;2024-01-30T07:43:58;102500.50;;;9.80;88.68
81704;BME280;71117;52.352;4.808;2024-01-30T07:46:23;102511.94;;;9.81;87.89
81704;BME280;71117;52.352;4.808;2024-01-30T07:48:48;102510.81;;;9.94;87.71
81704;BME280;71117;52.352;4.808;2024-01-30T07:51:14;102514.97;;;9.89;88.39
81704;BME280;71117;52.352;4.808;2024-01-30T07:53:42;102518.78;;;9.95;87.42
81704;BME280;71117;52.352;4.808;2024-01-30T07:56:07;102519.63;;;9.94;87.63
81704;BME280;71117;52.352;4.808;2024-01-30T07:58:32;102514.56;;;9.99;87.74
81704;BME280;71117;52.352;4.808;2024-01-30T08:00:58;102522.78;;;10.05;88.11
81704;BME280;71117;52.352;4.808;2024-01-30T08:03:24;102524.00;;;9.94;87.82
81704;BME280;71117;52.352;4.808;2024-01-30T08:05:49;102529.84;;;10.06;87.94
81704;BME280;71117;52.352;4.808;2024-01-30T08:08:15;102530.53;;;10.02;88.20
81704;BME280;71117;52.352;4.808;2024-01-30T08:10:40;102535.81;;;10.02;87.98
81704;BME280;71117;52.352;4.808;2024-01-30T08:13:05;102524.34;;;10.01;88.61
81704;BME280;71117;52.352;4.808;2024-01-30T08:15:31;102521.66;;;10.00;88.32
81704;BME280;71117;52.352;4.808;2024-01-30T08:17:56;102525.19;;;10.00;88.96
81704;BME280;71117;52.352;4.808;2024-01-30T08:20:24;102520.47;;;10.13;87.63
81704;BME280;71117;52.352;4.808;2024-01-30T08:22:49;102525.69;;;10.11;87.57
81704;BME280;71117;52.352;4.808;2024-01-30T08:25:14;102535.97;;;10.05;88.30
81704;BME280;71117;52.352;4.808;2024-01-30T08:27:40;102526.03;;;10.19;88.47
81704;BME280;71117;52.352;4.808;2024-01-30T08:30:06;102518.69;;;10.12;88.81
81704;BME280;71117;52.352;4.808;2024-01-30T08:32:32;102529.59;;;10.19;88.88
81704;BME280;71117;52.352;4.808;2024-01-30T08:34:58;102541.75;;;10.16;89.22
81704;BME280;71117;52.352;4.808;2024-01-30T08:37:23;102548.59;;;10.30;88.34
81704;BME280;71117;52.352;4.808;2024-01-30T08:39:49;102552.63;;;10.41;88.13
81704;BME280;71117;52.352;4.808;2024-01-30T08:42:14;102548.53;;;10.48;87.86
81704;BME280;71117;52.352;4.808;2024-01-30T08:44:39;102546.31;;;10.57;88.51
81704;BME280;71117;52.352;4.808;2024-01-30T08:47:05;102555.03;;;10.75;87.30
81704;BME280;71117;52.352;4.808;2024-01-30T08:49:31;102556.94;;;10.78;87.41
81704;BME280;71117;52.352;4.808;2024-01-30T08:51:56;102549.97;;;10.80;87.77
81704;BME280;71117;52.352;4.808;2024-01-30T08:54:21;102540.88;;;10.94;87.62
81704;BME280;71117;52.352;4.808;2024-01-30T08:56:47;102550.97;;;11.03;87.55
81704;BME280;71117;52.352;4.808;2024-01-30T08:59:12;102543.25;;;11.07;86.66
81704;BME280;71117;52.352;4.808;2024-01-30T09:01:37;102551.50;;;11.15;86.41
81704;BME280;71117;52.352;4.808;2024-01-30T09:04:03;102548.34;;;11.24;85.46
81704;BME280;71117;52.352;4.808;2024-01-30T09:06:30;102543.69;;;11.18;86.36
81704;BME280;71117;52.352;4.808;2024-01-30T09:08:56;102547.50;;;11.25;85.30
81704;BME280;71117;52.352;4.808;2024-01-30T09:11:23;102558.47;;;11.34;85.10
81704;BME280;71117;52.352;4.808;2024-01-30T09:13:48;102561.94;;;11.33;85.02
81704;BME280;71117;52.352;4.808;2024-01-30T09:16:14;102553.34;;;11.38;84.82
81704;BME280;71117;52.352;4.808;2024-01-30T09:18:41;102570.34;;;11.23;85.69
81704;BME280;71117;52.352;4.808;2024-01-30T09:21:06;102562.00;;;11.13;86.48
81704;BME280;71117;52.352;4.808;2024-01-30T09:23:31;102563.81;;;11.15;86.60
81704;BME280;71117;52.352;4.808;2024-01-30T09:25:57;102570.63;;;11.09;86.81
81704;BME280;71117;52.352;4.808;2024-01-30T09:28:23;102578.69;;;10.92;87.31
81704;BME280;71117;52.352;4.808;2024-01-30T09:30:48;102581.16;;;10.89;87.65
81704;BME280;71117;52.352;4.808;2024-01-30T09:33:16;102571.94;;;10.79;87.44
81704;BME280;71117;52.352;4.808;2024-01-30T09:35:41;102594.94;;;10.81;88.13
81704;BME280;71117;52.352;4.808;2024-01-30T09:38:06;102596.41;;;10.75;88.08
81704;BME280;71117;52.352;4.808;2024-01-30T09:40:32;102585.84;;;10.75;87.68
81704;BME280;71117;52.352;4.808;2024-01-30T09:42:58;102599.13;;;10.76;86.87
81704;BME280;71117;52.352;4.808;2024-01-30T09:45:25;102596.38;;;10.73;87.00
81704;BME280;71117;52.352;4.808;2024-01-30T09:47:53;102604.28;;;10.73;85.81
81704;BME280;71117;52.352;4.808;2024-01-30T09:50:19;102607.47;;;10.66;85.44
81704;BME280;71117;52.352;4.808;2024-01-30T09:52:45;102619.84;;;10.48;85.40
81704;BME280;71117;52.352;4.808;2024-01-30T09:55:11;102615.31;;;10.45;85.76
81704;BME280;71117;52.352;4.808;2024-01-30T09:57:36;102608.75;;;10.37;85.19
81704;BME280;71117;52.352;4.808;2024-01-30T10:00:03;102581.47;;;10.37;84.90
81704;BME280;71117;52.352;4.808;2024-01-30T10:02:31;102602.22;;;10.29;83.85
81704;BME280;71117;52.352;4.808;2024-01-30T10:04:56;102630.31;;;10.27;84.03
81704;BME280;71117;52.352;4.808;2024-01-30T10:07:22;102669.34;;;10.16;83.84
81704;BME280;71117;52.352;4.808;2024-01-30T10:09:48;102619.19;;;10.16;83.76
81704;BME280;71117;52.352;4.808;2024-01-30T10:12:15;102620.72;;;10.29;83.07
81704;BME280;71117;52.352;4.808;2024-01-30T10:14:40;102643.09;;;10.19;82.62
81704;BME280;71117;52.352;4.808;2024-01-30T10:17:09;102622.53;;;10.30;82.62
81704;BME280;71117;52.352;4.808;2024-01-30T10:19:36;102618.75;;;10.25;83.15
81704;BME280;71117;52.352;4.808;2024-01-30T10:22:02;102623.34;;;10.11;83.48
81704;BME280;71117;52.352;4.808;2024-01-30T10:24:27;102615.78;;;10.19;84.11
81704;BME280;71117;52.352;4.808;2024-01-30T10:26:55;102619.50;;;10.22;83.45
81704;BME280;71117;52.352;4.808;2024-01-30T10:29:20;102626.28;;;10.17;84.13
81704;BME280;71117;52.352;4.808;2024-01-30T10:32:08;102625.84;;;10.26;84.77
81704;BME280;71117;52.352;4.808;2024-01-30T10:34:34;102617.06;;;10.09;85.64
81704;BME280;71117;52.352;4.808;2024-01-30T10:37:07;102633.69;;;10.06;85.58
81704;BME280;71117;52.352;4.808;2024-01-30T10:39:37;102626.31;;;9.99;87.18
81704;BME280;71117;52.352;4.808;2024-01-30T10:42:04;102637.06;;;9.86;88.42
81704;BME280;71117;52.352;4.808;2024-01-30T10:44:36;102638.44;;;9.96;88.70
81704;BME280;71117;52.352;4.808;2024-01-30T10:47:06;102645.47;;;9.77;88.31
81704;BME280;71117;52.352;4.808;2024-01-30T10:49:36;102654.88;;;9.72;87.50
81704;BME280;71117;52.352;4.808;2024-01-30T10:52:03;102668.38;;;9.78;86.75
81704;BME280;71117;52.352;4.808;2024-01-30T10:54:30;102649.00;;;9.78;88.02
81704;BME280;71117;52.352;4.808;2024-01-30T10:56:58;102669.50;;;9.66;88.90
81704;BME280;71117;52.352;4.808;2024-01-30T10:59:27;102656.50;;;9.52;90.87
81704;BME280;71117;52.352;4.808;2024-01-30T11:01:53;102658.88;;;9.48;91.76
81704;BME280;71117;52.352;4.808;2024-01-30T11:04:19;102651.56;;;9.42;92.59
81704;BME280;71117;52.352;4.808;2024-01-30T11:06:44;102665.25;;;9.35;92.93
81704;BME280;71117;52.352;4.808;2024-01-30T11:09:12;102668.25;;;9.25;94.31
81704;BME280;71117;52.352;4.808;2024-01-30T11:11:51;102678.56;;;9.20;94.48
81704;BME280;71117;52.352;4.808;2024-01-30T11:14:30;102659.34;;;9.23;94.63
81704;BME280;71117;52.352;4.808;2024-01-30T11:16:59;102654.38;;;9.45;94.50
81704;BME280;71117;52.352;4.808;2024-01-30T11:19:26;102664.56;;;9.21;93.18
81704;BME280;71117;52.352;4.808;2024-01-30T11:21:54;102658.94;;;9.32;92.31
81704;BME280;71117;52.352;4.808;2024-01-30T11:24:22;102664.28;;;9.33;90.92
81704;BME280;71117;52.352;4.808;2024-01-30T11:26:49;102664.84;;;9.44;90.79
81704;BME280;71117;52.352;4.808;2024-01-30T11:29:17;102656.19;;;9.46;90.96
81704;BME280;71117;52.352;4.808;2024-01-30T11:31:52;102666.97;;;9.51;90.34
81704;BME280;71117;52.352;4.808;2024-01-30T11:34:18;102658.56;;;9.42;89.90
81704;BME280;71117;52.352;4.808;2024-01-30T11:36:47;102662.75;;;9.54;89.16
81704;BME280;71117;52.352;4.808;2024-01-30T11:39:16;102659.53;;;9.60;90.01
81704;BME280;71117;52.352;4.808;2024-01-30T11:41:43;102652.75;;;9.65;89.53
81704;BME280;71117;52.352;4.808;2024-01-30T11:44:10;102651.44;;;9.57;89.20
81704;BME280;71117;52.352;4.808;2024-01-30T11:46:36;102659.00;;;9.67;89.19
81704;BME280;71117;52.352;4.808;2024-01-30T11:49:01;102648.47;;;9.67;88.82
81704;BME280;71117;52.352;4.808;2024-01-30T11:51:27;102652.66;;;9.64;88.14
81704;BME280;71117;52.352;4.808;2024-01-30T11:53:53;102648.00;;;9.76;87.93
81704;BME280;71117;52.352;4.808;2024-01-30T11:56:18;102655.91;;;9.76;87.47
81704;BME280;71117;52.352;4.808;2024-01-30T11:58:43;102651.75;;;9.63;87.78
81704;BME280;71117;52.352;4.808;2024-01-30T12:01:10;102670.56;;;9.53;88.34
81704;BME280;71117;52.352;4.808;2024-01-30T12:03:36;102671.56;;;9.55;88.55
81704;BME280;71117;52.352;4.808;2024-01-30T12:06:03;102660.72;;;9.49;89.06
81704;BME280;71117;52.352;4.808;2024-01-30T12:08:28;102667.22;;;9.56;89.95
81704;BME280;71117;52.352;4.808;2024-01-30T12:10:57;102676.38;;;9.46;90.41
81704;BME280;71117;52.352;4.808;2024-01-30T12:13:28;102662.69;;;9.37;91.27
81704;BME280;71117;52.352;4.808;2024-01-30T12:15:54;102669.28;;;9.45;91.32
81704;BME280;71117;52.352;4.808;2024-01-30T12:18:19;102677.47;;;9.33;91.15
81704;BME280;71117;52.352;4.808;2024-01-30T12:20:45;102673.59;;;9.43;91.37
81704;BME280;71117;52.352;4.808;2024-01-30T12:23:12;102665.88;;;9.47;91.76
81704;BME280;71117;52.352;4.808;2024-01-30T12:25:38;102682.88;;;9.36;92.25
81704;BME280;71117;52.352;4.808;2024-01-30T12:28:04;102678.88;;;9.26;92.76
81704;BME280;71117;52.352;4.808;2024-01-30T12:30:29;102680.94;;;9.32;92.40
81704;BME280;71117;52.352;4.808;2024-01-30T12:32:55;102679.66;;;9.42;91.86
81704;BME280;71117;52.352;4.808;2024-01-30T12:35:20;102681.50;;;9.43;91.99
81704;BME280;71117;52.352;4.808;2024-01-30T12:37:47;102684.63;;;9.36;91.16
81704;BME280;71117;52.352;4.808;2024-01-30T12:40:16;102678.16;;;9.47;91.16
81704;BME280;71117;52.352;4.808;2024-01-30T12:42:43;102689.09;;;9.71;89.86
81704;BME280;71117;52.352;4.808;2024-01-30T12:45:09;102685.44;;;9.51;90.55
81704;BME280;71117;52.352;4.808;2024-01-30T12:47:35;102683.38;;;9.45;90.67
81704;BME280;71117;52.352;4.808;2024-01-30T12:50:00;102687.81;;;9.46;91.20
81704;BME280;71117;52.352;4.808;2024-01-30T12:52:28;102681.41;;;9.41;90.65
81704;BME280;71117;52.352;4.808;2024-01-30T12:54:54;102683.56;;;9.48;90.50